sensor_id;sensor_type;location;lat;lon;timestamp;pressure;altitude;pressure_sealevel;temperature;humidity
72677;BME280;60755;51.374;10.662;2023-05-03T00:02:05;98258.25;;;2.77;90.69
72677;BME280;60755;51.374;10.662;2023-05-03T00:04:32;98250.78;;;2.66;89.53
72677;BME280;60755;51.374;10.662;2023-05-03T00:07:00;98253.34;;;2.58;91.30
72677;BME280;60755;51.374;10.662;2023-05-03T00:09:29;98259.16;;;2.52;91.65
72677;BME280;60755;51.374;10.662;2023-05-03T00:11:56;98254.31;;;2.49;91.44
72677;BME280;60755;51.374;10.662;2023-05-03T00:14:25;98254.59;;;2.46;90.04
72677;BME280;60755;51.374;10.662;2023-05-03T00:16:53;98250.72;;;2.50;91.12
72677;BME280;60755;51.374;10.662;2023-05-03T00:19:20;98255.72;;;2.43;90.23
72677;BME280;60755;51.374;10.662;2023-05-03T00:21:47;98258.97;;;2.45;90.32
72677;BME280;60755;51.374;10.662;2023-05-03T00:24:14;98250.34;;;2.37;90.21
72677;BME280;60755;51.374;10.662;2023-05-03T00:26:43;98253.28;;;2.34;92.30
72677;BME280;60755;51.374;10.662;2023-05-03T00:29:10;98254.34;;;2.23;91.66
72677;BME280;60755;51.374;10.662;2023-05-03T00:31:38;98257.09;;;2.21;91.94
72677;BME280;60755;51.374;10.662;2023-05-03T00:34:05;98249.28;;;2.13;92.57
72677;BME280;60755;51.374;10.662;2023-05-03T00:36:33;98245.38;;;2.01;91.60
72677;BME280;60755;51.374;10.662;2023-05-03T00:39:00;98249.44;;;2.04;92.41
72677;BME280;60755;51.374;10.662;2023-05-03T00:41:27;98242.41;;;1.96;93.14
72677;BME280;60755;51.374;10.662;2023-05-03T00:43:56;98240.16;;;1.93;91.48
72677;BME280;60755;51.374;10.662;2023-05-03T00:46:23;98243.19;;;1.88;91.95
72677;BME280;60755;51.374;10.662;2023-05-03T00:48:51;98253.72;;;1.87;92.79
72677;BME280;60755;51.374;10.662;2023-05-03T00:51:19;98251.41;;;1.84;91.19
72677;BME280;60755;51.374;10.662;2023-05-03T00:53:47;98245.75;;;1.80;91.91
72677;BME280;60755;51.374;10.662;2023-05-03T00:56:17;98246.41;;;1.82;90.24
72677;BME280;60755;51.374;10.662;2023-05-03T00:58:46;98241.53;;;1.79;91.49
72677;BME280;60755;51.374;10.662;2023-05-03T01:01:15;98250.75;;;1.82;91.71
72677;BME280;60755;51.374;10.662;2023-05-03T01:03:43;98238.56;;;1.74;90.68
72677;BME280;60755;51.374;10.662;2023-05-03T01:06:17;98242.47;;;1.70;92.32
72677;BME280;60755;51.374;10.662;2023-05-03T01:08:54;98242.63;;;1.68;91.37
72677;BME280;60755;51.374;10.662;2023-05-03T01:11:29;98241.38;;;1.55;92.17
72677;BME280;60755;51.374;10.662;2023-05-03T01:14:05;98238.00;;;1.54;93.15
72677;BME280;60755;51.374;10.662;2023-05-03T01:16:39;98238.91;;;1.45;92.83
72677;BME280;60755;51.374;10.662;2023-05-03T01:19:17;98235.78;;;1.42;94.23
72677;BME280;60755;51.374;10.662;2023-05-03T01:21:46;98241.63;;;1.44;94.93
72677;BME280;60755;51.374;10.662;2023-05-03T01:24:25;98235.94;;;1.40;94.44
72677;BME280;60755;51.374;10.662;2023-05-03T01:26:55;98249.97;;;1.29;94.76
72677;BME280;60755;51.374;10.662;2023-05-03T01:29:22;98251.06;;;1.27;94.65
72677;BME280;60755;51.374;10.662;2023-05-03T01:31:54;98256.91;;;1.29;92.48
72677;BME280;60755;51.374;10.662;2023-05-03T01:34:28;98251.38;;;1.24;92.01
72677;BME280;60755;51.374;10.662;2023-05-03T01:36:58;98264.06;;;1.35;91.95
72677;BME280;60755;51.374;10.662;2023-05-03T01:39:32;98258.59;;;1.38;90.80
72677;BME280;60755;51.374;10.662;2023-05-03T01:42:03;98254.22;;;1.38;91.20
72677;BME280;60755;51.374;10.662;2023-05-03T01:44:32;98262.66;;;1.40;92.69
72677;BME280;60755;51.374;10.662;2023-05-03T01:47:01;98251.44;;;1.32;92.26
72677;BME280;60755;51.374;10.662;2023-05-03T01:49:28;98262.38;;;1.26;92.86
72677;BME280;60755;51.374;10.662;2023-05-03T01:51:55;98263.66;;;1.22;92.27
72677;BME280;60755;51.374;10.662;2023-05-03T01:54:23;98256.69;;;1.22;91.56
72677;BME280;60755;51.374;10.662;2023-05-03T01:56:51;98263.34;;;1.25;90.93
72677;BME280;60755;51.374;10.662;2023-05-03T01:59:21;98259.56;;;1.19;90.67
72677;BME280;60755;51.374;10.662;2023-05-03T02:01:48;98265.78;;;1.26;92.31
72677;BME280;60755;51.374;10.662;2023-05-03T02:04:15;98264.38;;;1.32;93.24
72677;BME280;60755;51.374;10.662;2023-05-03T02:06:43;98257.91;;;1.36;90.67
72677;BME280;60755;51.374;10.662;2023-05-03T02:09:10;98269.88;;;1.29;91.03
72677;BME280;60755;51.374;10.662;2023-05-03T02:11:37;98273.84;;;1.23;90.98
72677;BME280;60755;51.374;10.662;2023-05-03T02:14:04;98277.47;;;1.30;91.75
72677;BME280;60755;51.374;10.662;2023-05-03T02:16:34;98268.84;;;1.22;93.05
72677;BME280;60755;51.374;10.662;2023-05-03T02:19:01;98269.91;;;1.19;93.17
72677;BME280;60755;51.374;10.662;2023-05-03T02:21:28;98270.22;;;1.16;93.35
72677;BME280;60755;51.374;10.662;2023-05-03T02:23:56;98281.41;;;1.17;94.38
72677;BME280;60755;51.374;10.662;2023-05-03T02:26:24;98277.78;;;1.09;94.06
72677;BME280;60755;51.374;10.662;2023-05-03T02:28:52;98279.25;;;1.12;93.55
72677;BME280;60755;51.374;10.662;2023-05-03T02:31:20;98279.94;;;1.14;93.92
72677;BME280;60755;51.374;10.662;2023-05-03T02:33:49;98285.53;;;1.09;93.23
72677;BME280;60755;51.374;10.662;2023-05-03T02:36:16;98275.41;;;1.16;93.91
72677;BME280;60755;51.374;10.662;2023-05-03T02:38:44;98276.44;;;1.23;92.61
72677;BME280;60755;51.374;10.662;2023-05-03T02:41:11;98273.53;;;1.26;92.04
72677;BME280;60755;51.374;10.662;2023-05-03T02:43:39;98273.81;;;1.41;91.46
72677;BME280;60755;51.374;10.662;2023-05-03T02:46:06;98277.53;;;1.38;92.67
72677;BME280;60755;51.374;10.662;2023-05-03T02:48:33;98274.41;;;1.35;92.19
72677;BME280;60755;51.374;10.662;2023-05-03T02:51:02;98283.81;;;1.36;93.19
72677;BME280;60755;51.374;10.662;2023-05-03T02:53:29;98281.53;;;1.33;92.30
72677;BME280;60755;51.374;10.662;2023-05-03T02:56:00;98273.38;;;1.28;93.48
72677;BME280;60755;51.374;10.662;2023-05-03T02:58:28;98273.03;;;1.23;92.70
72677;BME280;60755;51.374;10.662;2023-05-03T03:00:56;98268.22;;;1.28;93.76
72677;BME280;60755;51.374;10.662;2023-05-03T03:03:28;98267.84;;;1.40;93.99
72677;BME280;60755;51.374;10.662;2023-05-03T03:05:55;98272.81;;;1.60;92.87
72677;BME280;60755;51.374;10.662;2023-05-03T03:08:24;98266.00;;;1.59;91.72
72677;BME280;60755;51.374;10.662;2023-05-03T03:10:53;98267.03;;;1.66;92.57
72677;BME280;60755;51.374;10.662;2023-05-03T03:13:20;98264.97;;;1.70;92.60
72677;BME280;60755;51.374;10.662;2023-05-03T03:15:48;98273.06;;;1.75;93.12
72677;BME280;60755;51.374;10.662;2023-05-03T03:18:17;98273.34;;;1.63;91.22
72677;BME280;60755;51.374;10.662;2023-05-03T03:20:44;98272.75;;;1.52;92.41
72677;BME280;60755;51.374;10.662;2023-05-03T03:23:11;98279.00;;;1.41;93.01
72677;BME280;60755;51.374;10.662;2023-05-03T03:25:41;98280.56;;;1.34;93.98
72677;BME280;60755;51.374;10.662;2023-05-03T03:28:08;98278.88;;;1.25;93.34
72677;BME280;60755;51.374;10.662;2023-05-03T03:30:36;98278.94;;;1.33;92.98
72677;BME280;60755;51.374;10.662;2023-05-03T03:33:14;98284.84;;;1.43;92.40
72677;BME280;60755;51.374;10.662;2023-05-03T03:35:42;98280.03;;;1.48;92.74
72677;BME280;60755;51.374;10.662;2023-05-03T03:38:11;98286.94;;;1.39;94.00
72677;BME280;60755;51.374;10.662;2023-05-03T03:40:47;98288.63;;;1.31;94.35
72677;BME280;60755;51.374;10.662;2023-05-03T03:43:15;98296.56;;;1.29;94.17
72677;BME280;60755;51.374;10.662;2023-05-03T03:45:43;98296.34;;;1.23;94.13
72677;BME280;60755;51.374;10.662;2023-05-03T03:48:13;98296.03;;;1.26;94.50
72677;BME280;60755;51.374;10.662;2023-05-03T03:50:44;98293.50;;;1.34;94.90
72677;BME280;60755;51.374;10.662;2023-05-03T03:53:12;98300.53;;;1.42;94.46
72677;BME280;60755;51.374;10.662;2023-05-03T03:55:40;98301.66;;;1.39;94.69
72677;BME280;60755;51.374;10.662;2023-05-03T03:58:09;98300.97;;;1.55;93.76
72677;BME280;60755;51.374;10.662;2023-05-03T04:00:37;98301.31;;;1.60;94.56
72677;BME280;60755;51.374;10.662;2023-05-03T04:03:11;98298.13;;;1.66;92.10
72677;BME280;60755;51.374;10.662;2023-05-03T04:05:38;98308.69;;;1.73;92.05
72677;BME280;60755;51.374;10.662;2023-05-03T04:08:05;98306.16;;;1.81;91.39
72677;BME280;60755;51.374;10.662;2023-05-03T04:10:34;98306.09;;;1.99;90.11
72677;BME280;60755;51.374;10.662;2023-05-03T04:13:02;98311.16;;;3.01;90.10
72677;BME280;60755;51.374;10.662;2023-05-03T04:15:30;98308.63;;;4.69;83.73
72677;BME280;60755;51.374;10.662;2023-05-03T04:17:59;98307.06;;;6.12;75.34
72677;BME280;60755;51.374;10.662;2023-05-03T04:20:26;98308.94;;;7.20;69.30
72677;BME280;60755;51.374;10.662;2023-05-03T04:22:54;98312.69;;;8.37;65.16
72677;BME280;60755;51.374;10.662;2023-05-03T04:25:25;98314.13;;;8.94;62.53
72677;BME280;60755;51.374;10.662;2023-05-03T04:27:58;98316.84;;;9.41;61.14
72677;BME280;60755;51.374;10.662;2023-05-03T04:30:27;98315.84;;;10.79;57.49
72677;BME280;60755;51.374;10.662;2023-05-03T04:32:58;98324.16;;;11.46;54.53
72677;BME280;60755;51.374;10.662;2023-05-03T04:35:27;98323.13;;;12.47;52.22
72677;BME280;60755;51.374;10.662;2023-05-03T04:37:57;98322.97;;;12.42;51.36
72677;BME280;60755;51.374;10.662;2023-05-03T04:40:26;98317.66;;;12.97;49.91
72677;BME280;60755;51.374;10.662;2023-05-03T04:43:12;98312.91;;;13.17;49.10
72677;BME280;60755;51.374;10.662;2023-05-03T04:45:43;98315.38;;;14.19;47.01
72677;BME280;60755;51.374;10.662;2023-05-03T04:48:16;98321.25;;;14.21;47.64
72677;BME280;60755;51.374;10.662;2023-05-03T04:50:44;98317.66;;;13.68;47.62
72677;BME280;60755;51.374;10.662;2023-05-03T04:53:13;98315.63;;;14.52;45.99
72677;BME280;60755;51.374;10.662;2023-05-03T04:55:42;98311.25;;;15.44;46.59
72677;BME280;60755;51.374;10.662;2023-05-03T04:58:10;98303.56;;;16.09;42.92
72677;BME280;60755;51.374;10.662;2023-05-03T05:00:40;98310.50;;;16.93;42.41
72677;BME280;60755;51.374;10.662;2023-05-03T05:03:13;98308.97;;;16.58;42.10
72677;BME280;60755;51.374;10.662;2023-05-03T05:05:42;98315.56;;;17.21;41.09
72677;BME280;60755;51.374;10.662;2023-05-03T05:08:10;98318.47;;;17.20;39.93
72677;BME280;60755;51.374;10.662;2023-05-03T05:10:42;98321.75;;;18.28;38.77
72677;BME280;60755;51.374;10.662;2023-05-03T05:13:14;98319.38;;;17.30;38.96
72677;BME280;60755;51.374;10.662;2023-05-03T05:15:42;98324.34;;;17.49;38.48
72677;BME280;60755;51.374;10.662;2023-05-03T05:18:11;98323.16;;;18.41;38.92
72677;BME280;60755;51.374;10.662;2023-05-03T05:20:39;98329.69;;;18.65;37.25
72677;BME280;60755;51.374;10.662;2023-05-03T05:23:08;98319.53;;;16.70;40.35
72677;BME280;60755;51.374;10.662;2023-05-03T05:25:37;98335.56;;;16.41;40.54
72677;BME280;60755;51.374;10.662;2023-05-03T05:28:04;98336.09;;;18.22;37.66
72677;BME280;60755;51.374;10.662;2023-05-03T05:30:32;98339.13;;;18.41;36.82
72677;BME280;60755;51.374;10.662;2023-05-03T05:33:00;98341.81;;;15.06;40.88
72677;BME280;60755;51.374;10.662;2023-05-03T05:35:28;98338.97;;;16.59;40.07
72677;BME280;60755;51.374;10.662;2023-05-03T05:37:56;98346.88;;;15.07;40.50
72677;BME280;60755;51.374;10.662;2023-05-03T05:40:25;98349.19;;;12.92;45.37
72677;BME280;60755;51.374;10.662;2023-05-03T05:42:55;98348.56;;;15.87;41.52
72677;BME280;60755;51.374;10.662;2023-05-03T05:45:25;98345.94;;;16.43;37.51
72677;BME280;60755;51.374;10.662;2023-05-03T05:47:53;98346.66;;;15.54;39.82
72677;BME280;60755;51.374;10.662;2023-05-03T05:50:20;98344.31;;;15.86;40.28
72677;BME280;60755;51.374;10.662;2023-05-03T05:52:54;98344.06;;;16.05;38.94
72677;BME280;60755;51.374;10.662;2023-05-03T05:55:24;98353.81;;;18.49;38.27
72677;BME280;60755;51.374;10.662;2023-05-03T05:57:53;98342.50;;;19.62;33.26
72677;BME280;60755;51.374;10.662;2023-05-03T06:00:24;98342.88;;;18.97;34.05
72677;BME280;60755;51.374;10.662;2023-05-03T06:02:51;98352.31;;;19.41;31.96
72677;BME280;60755;51.374;10.662;2023-05-03T06:05:21;98343.22;;;18.59;32.99
72677;BME280;60755;51.374;10.662;2023-05-03T06:07:48;98347.81;;;18.21;34.94
72677;BME280;60755;51.374;10.662;2023-05-03T06:10:16;98351.59;;;19.96;32.74
72677;BME280;60755;51.374;10.662;2023-05-03T06:12:48;98355.78;;;19.36;32.46
72677;BME280;60755;51.374;10.662;2023-05-03T06:15:24;98349.53;;;18.00;34.12
72677;BME280;60755;51.374;10.662;2023-05-03T06:17:52;98355.91;;;18.41;34.06
72677;BME280;60755;51.374;10.662;2023-05-03T06:20:19;98359.19;;;15.42;38.83
72677;BME280;60755;51.374;10.662;2023-05-03T06:22:49;98355.56;;;17.10;36.48
72677;BME280;60755;51.374;10.662;2023-05-03T06:25:16;98358.53;;;16.14;36.60
72677;BME280;60755;51.374;10.662;2023-05-03T06:27:48;98361.50;;;16.56;35.97
72677;BME280;60755;51.374;10.662;2023-05-03T06:30:18;98357.88;;;17.01;35.46
72677;BME280;60755;51.374;10.662;2023-05-03T06:32:47;98347.59;;;18.33;33.91
72677;BME280;60755;51.374;10.662;2023-05-03T06:35:14;98357.66;;;17.88;34.00
72677;BME280;60755;51.374;10.662;2023-05-03T06:37:44;98360.22;;;18.05;33.43
72677;BME280;60755;51.374;10.662;2023-05-03T06:40:11;98361.34;;;18.62;33.66
72677;BME280;60755;51.374;10.662;2023-05-03T06:42:39;98352.88;;;19.48;32.18
72677;BME280;60755;51.374;10.662;2023-05-03T06:45:22;98353.72;;;19.64;31.83
72677;BME280;60755;51.374;10.662;2023-05-03T06:47:49;98358.41;;;19.21;31.37
72677;BME280;60755;51.374;10.662;2023-05-03T06:50:16;98356.66;;;20.18;30.64
72677;BME280;60755;51.374;10.662;2023-05-03T06:52:44;98352.13;;;21.58;29.99
72677;BME280;60755;51.374;10.662;2023-05-03T06:55:12;98362.00;;;21.13;29.25
72677;BME280;60755;51.374;10.662;2023-05-03T06:57:39;98350.06;;;21.50;30.13
72677;BME280;60755;51.374;10.662;2023-05-03T07:00:08;98353.78;;;21.49;28.66
72677;BME280;60755;51.374;10.662;2023-05-03T07:02:37;98347.00;;;23.02;27.54
72677;BME280;60755;51.374;10.662;2023-05-03T07:05:05;98351.13;;;22.70;28.25
72677;BME280;60755;51.374;10.662;2023-05-03T07:07:33;98351.22;;;23.08;27.53
72677;BME280;60755;51.374;10.662;2023-05-03T07:10:00;98349.69;;;23.02;27.96
72677;BME280;60755;51.374;10.662;2023-05-03T07:12:27;98349.56;;;21.82;29.64
72677;BME280;60755;51.374;10.662;2023-05-03T07:14:55;98358.75;;;23.25;28.04
72677;BME280;60755;51.374;10.662;2023-05-03T07:17:22;98351.50;;;23.06;30.12
72677;BME280;60755;51.374;10.662;2023-05-03T07:19:51;98346.59;;;24.35;27.25
72677;BME280;60755;51.374;10.662;2023-05-03T07:22:19;98356.69;;;23.78;27.72
72677;BME280;60755;51.374;10.662;2023-05-03T07:24:50;98345.16;;;19.51;35.65
72677;BME280;60755;51.374;10.662;2023-05-03T07:27:17;98351.03;;;16.28;36.17
72677;BME280;60755;51.374;10.662;2023-05-03T07:29:44;98350.25;;;13.51;42.33
72677;BME280;60755;51.374;10.662;2023-05-03T07:32:11;98352.31;;;13.60;44.21
72677;BME280;60755;51.374;10.662;2023-05-03T07:34:39;98349.00;;;15.51;43.05
72677;BME280;60755;51.374;10.662;2023-05-03T07:37:07;98344.41;;;17.94;35.44
72677;BME280;60755;51.374;10.662;2023-05-03T07:39:34;98340.38;;;19.69;34.86
72677;BME280;60755;51.374;10.662;2023-05-03T07:42:02;98344.09;;;20.19;33.14
72677;BME280;60755;51.374;10.662;2023-05-03T07:44:29;98338.25;;;19.71;33.66
72677;BME280;60755;51.374;10.662;2023-05-03T07:46:56;98338.91;;;21.33;32.19
72677;BME280;60755;51.374;10.662;2023-05-03T07:49:23;98341.25;;;20.90;31.52
72677;BME280;60755;51.374;10.662;2023-05-03T07:51:51;98338.84;;;21.82;30.41
72677;BME280;60755;51.374;10.662;2023-05-03T07:54:19;98341.72;;;22.20;29.74
72677;BME280;60755;51.374;10.662;2023-05-03T07:56:47;98347.00;;;23.02;30.14
72677;BME280;60755;51.374;10.662;2023-05-03T07:59:14;98344.34;;;23.58;28.92
72677;BME280;60755;51.374;10.662;2023-05-03T08:01:41;98345.94;;;21.18;32.75
72677;BME280;60755;51.374;10.662;2023-05-03T08:04:08;98343.34;;;18.79;32.60
72677;BME280;60755;51.374;10.662;2023-05-03T08:06:36;98330.59;;;20.80;30.54
72677;BME280;60755;51.374;10.662;2023-05-03T08:09:03;98335.97;;;20.80;34.47
72677;BME280;60755;51.374;10.662;2023-05-03T08:11:32;98335.31;;;19.88;34.06
72677;BME280;60755;51.374;10.662;2023-05-03T08:13:59;98330.47;;;17.49;36.06
72677;BME280;60755;51.374;10.662;2023-05-03T08:16:26;98336.06;;;14.69;42.42
72677;BME280;60755;51.374;10.662;2023-05-03T08:18:55;98336.06;;;13.33;44.77
72677;BME280;60755;51.374;10.662;2023-05-03T08:21:22;98336.88;;;12.49;49.28
72677;BME280;60755;51.374;10.662;2023-05-03T08:23:49;98329.16;;;11.86;48.54
72677;BME280;60755;51.374;10.662;2023-05-03T08:26:17;98339.19;;;11.39;50.76
72677;BME280;60755;51.374;10.662;2023-05-03T08:28:45;98343.22;;;11.48;53.39
72677;BME280;60755;51.374;10.662;2023-05-03T08:31:12;98340.22;;;10.42;51.36
72677;BME280;60755;51.374;10.662;2023-05-03T08:33:40;98341.00;;;10.55;54.57
72677;BME280;60755;51.374;10.662;2023-05-03T08:36:07;98342.84;;;11.69;54.33
72677;BME280;60755;51.374;10.662;2023-05-03T08:38:34;98343.09;;;11.93;52.02
72677;BME280;60755;51.374;10.662;2023-05-03T08:41:13;98339.59;;;11.99;50.26
72677;BME280;60755;51.374;10.662;2023-05-03T08:43:44;98343.25;;;11.03;51.23
72677;BME280;60755;51.374;10.662;2023-05-03T08:46:15;98331.91;;;11.41;50.87
72677;BME280;60755;51.374;10.662;2023-05-03T08:48:44;98332.53;;;11.36;51.43
72677;BME280;60755;51.374;10.662;2023-05-03T08:51:13;98334.94;;;11.06;51.55
72677;BME280;60755;51.374;10.662;2023-05-03T08:53:42;98333.53;;;10.52;51.52
72677;BME280;60755;51.374;10.662;2023-05-03T08:56:11;98327.31;;;10.40;51.58
72677;BME280;60755;51.374;10.662;2023-05-03T08:58:38;98336.56;;;10.56;54.84
72677;BME280;60755;51.374;10.662;2023-05-03T09:01:07;98334.28;;;10.73;51.21
72677;BME280;60755;51.374;10.662;2023-05-03T09:03:35;98334.09;;;10.68;51.08
72677;BME280;60755;51.374;10.662;2023-05-03T09:06:18;98333.75;;;11.40;53.22
72677;BME280;60755;51.374;10.662;2023-05-03T09:08:45;98325.75;;;11.54;49.90
72677;BME280;60755;51.374;10.662;2023-05-03T09:11:19;98336.56;;;11.39;50.09
72677;BME280;60755;51.374;10.662;2023-05-03T09:13:47;98336.47;;;11.20;49.05
72677;BME280;60755;51.374;10.662;2023-05-03T09:16:22;98335.56;;;11.02;48.41
72677;BME280;60755;51.374;10.662;2023-05-03T09:18:55;98332.88;;;10.70;49.38
72677;BME280;60755;51.374;10.662;2023-05-03T09:21:23;98329.09;;;10.59;50.42
72677;BME280;60755;51.374;10.662;2023-05-03T09:23:50;98332.16;;;10.43;50.00
72677;BME280;60755;51.374;10.662;2023-05-03T09:26:27;98329.47;;;10.56;52.11
72677;BME280;60755;51.374;10.662;2023-05-03T09:28:54;98326.84;;;10.56;52.15
72677;BME280;60755;51.374;10.662;2023-05-03T09:31:23;98326.34;;;9.68;53.01
72677;BME280;60755;51.374;10.662;2023-05-03T09:33:50;98329.75;;;10.22;53.03
72677;BME280;60755;51.374;10.662;2023-05-03T09:36:18;98330.13;;;10.52;53.02
72677;BME280;60755;51.374;10.662;2023-05-03T09:38:45;98332.66;;;10.78;52.03
72677;BME280;60755;51.374;10.662;2023-05-03T09:41:13;98329.56;;;10.23;51.83
72677;BME280;60755;51.374;10.662;2023-05-03T09:43:58;98328.97;;;10.86;52.68
72677;BME280;60755;51.374;10.662;2023-05-03T09:46:29;98322.25;;;11.60;54.01
72677;BME280;60755;51.374;10.662;2023-05-03T09:48:57;98324.56;;;11.74;53.62
72677;BME280;60755;51.374;10.662;2023-05-03T09:51:24;98319.56;;;11.41;52.68
72677;BME280;60755;51.374;10.662;2023-05-03T09:53:52;98324.31;;;11.58;53.75
72677;BME280;60755;51.374;10.662;2023-05-03T09:56:22;98325.44;;;11.68;51.16
72677;BME280;60755;51.374;10.662;2023-05-03T09:58:52;98325.59;;;11.48;49.40
72677;BME280;60755;51.374;10.662;2023-05-03T10:01:20;98317.91;;;11.47;49.85
72677;BME280;60755;51.374;10.662;2023-05-03T10:03:50;98322.03;;;11.30;50.65
72677;BME280;60755;51.374;10.662;2023-05-03T10:06:24;98322.25;;;11.60;48.97
72677;BME280;60755;51.374;10.662;2023-05-03T10:08:59;98318.34;;;11.69;51.34
72677;BME280;60755;51.374;10.662;2023-05-03T10:11:28;98315.06;;;11.80;52.62
72677;BME280;60755;51.374;10.662;2023-05-03T10:13:55;98317.13;;;11.96;53.00
72677;BME280;60755;51.374;10.662;2023-05-03T10:16:25;98311.91;;;12.33;50.98
72677;BME280;60755;51.374;10.662;2023-05-03T10:18:59;98308.31;;;12.27;49.29
72677;BME280;60755;51.374;10.662;2023-05-03T10:21:37;98312.59;;;10.84;54.70
72677;BME280;60755;51.374;10.662;2023-05-03T10:24:08;98312.41;;;10.79;53.03
72677;BME280;60755;51.374;10.662;2023-05-03T10:26:36;98306.88;;;11.32;52.56
72677;BME280;60755;51.374;10.662;2023-05-03T10:29:04;98306.91;;;10.87;52.32
72677;BME280;60755;51.374;10.662;2023-05-03T10:31:45;98309.28;;;11.02;54.41
72677;BME280;60755;51.374;10.662;2023-05-03T10:34:21;98301.31;;;10.77;53.36
72677;BME280;60755;51.374;10.662;2023-05-03T10:36:50;98304.13;;;11.13;53.29
72677;BME280;60755;51.374;10.662;2023-05-03T10:39:19;98307.69;;;11.57;52.71
72677;BME280;60755;51.374;10.662;2023-05-03T10:41:56;98299.03;;;11.75;52.32
72677;BME280;60755;51.374;10.662;2023-05-03T10:44:25;98298.34;;;12.48;55.30
72677;BME280;60755;51.374;10.662;2023-05-03T10:46:53;98296.44;;;12.73;51.64
72677;BME280;60755;51.374;10.662;2023-05-03T10:49:22;98309.13;;;12.65;50.93
72677;BME280;60755;51.374;10.662;2023-05-03T10:51:51;98297.91;;;12.14;51.75
72677;BME280;60755;51.374;10.662;2023-05-03T10:54:18;98304.44;;;12.12;50.91
72677;BME280;60755;51.374;10.662;2023-05-03T10:56:50;98297.94;;;11.89;51.79
72677;BME280;60755;51.374;10.662;2023-05-03T10:59:18;98295.94;;;11.85;53.07
72677;BME280;60755;51.374;10.662;2023-05-03T11:01:48;98297.00;;;12.02;52.25
72677;BME280;60755;51.374;10.662;2023-05-03T11:04:24;98300.69;;;12.56;52.66
72677;BME280;60755;51.374;10.662;2023-05-03T11:06:56;98295.72;;;11.61;50.89
72677;BME280;60755;51.374;10.662;2023-05-03T11:09:29;98289.88;;;11.84;50.99
72677;BME280;60755;51.374;10.662;2023-05-03T11:11:57;98288.56;;;11.93;52.61
72677;BME280;60755;51.374;10.662;2023-05-03T11:14:25;98279.97;;;12.23;51.67
72677;BME280;60755;51.374;10.662;2023-05-03T11:16:52;98283.41;;;12.23;49.48
72677;BME280;60755;51.374;10.662;2023-05-03T11:19:23;98288.75;;;12.35;52.52
72677;BME280;60755;51.374;10.662;2023-05-03T11:21:51;98283.72;;;12.52;50.43
72677;BME280;60755;51.374;10.662;2023-05-03T11:24:19;98273.06;;;12.77;51.94
72677;BME280;60755;51.374;10.662;2023-05-03T11:26:46;98279.13;;;12.29;49.63
72677;BME280;60755;51.374;10.662;2023-05-03T11:29:14;98272.38;;;12.15;51.30
72677;BME280;60755;51.374;10.662;2023-05-03T11:31:42;98270.81;;;12.07;50.79
72677;BME280;60755;51.374;10.662;2023-05-03T11:34:10;98279.00;;;11.99;49.52
72677;BME280;60755;51.374;10.662;2023-05-03T11:36:39;98275.28;;;12.07;50.42
72677;BME280;60755;51.374;10.662;2023-05-03T11:39:06;98267.09;;;12.15;50.43
72677;BME280;60755;51.374;10.662;2023-05-03T11:41:34;98268.09;;;12.50;51.32
72677;BME280;60755;51.374;10.662;2023-05-03T11:44:02;98269.94;;;12.50;50.74
72677;BME280;60755;51.374;10.662;2023-05-03T11:46:32;98269.34;;;12.48;50.39
72677;BME280;60755;51.374;10.662;2023-05-03T11:48:59;98256.97;;;12.48;48.24
72677;BME280;60755;51.374;10.662;2023-05-03T11:51:27;98259.03;;;12.46;47.08
72677;BME280;60755;51.374;10.662;2023-05-03T11:53:56;98254.72;;;12.52;45.75
72677;BME280;60755;51.374;10.662;2023-05-03T11:56:23;98264.03;;;12.84;45.88
72677;BME280;60755;51.374;10.662;2023-05-03T11:58:52;98263.03;;;12.67;48.28
72677;BME280;60755;51.374;10.662;2023-05-03T12:01:23;98259.19;;;12.81;47.92
72677;BME280;60755;51.374;10.662;2023-05-03T12:03:55;98272.03;;;13.08;50.76
72677;BME280;60755;51.374;10.662;2023-05-03T12:06:23;98262.78;;;13.17;52.62
72677;BME280;60755;51.374;10.662;2023-05-03T12:08:52;98265.50;;;13.40;50.92
72677;BME280;60755;51.374;10.662;2023-05-03T12:11:21;98257.00;;;13.62;51.29
72677;BME280;60755;51.374;10.662;2023-05-03T12:13:55;98265.03;;;13.55;48.05
72677;BME280;60755;51.374;10.662;2023-05-03T12:16:23;98266.22;;;13.18;45.30
72677;BME280;60755;51.374;10.662;2023-05-03T12:18:52;98259.16;;;12.70;46.71
72677;BME280;60755;51.374;10.662;2023-05-03T12:21:22;98257.50;;;12.39;51.03
72677;BME280;60755;51.374;10.662;2023-05-03T12:23:50;98257.41;;;12.94;49.23
72677;BME280;60755;51.374;10.662;2023-05-03T12:26:18;98257.78;;;13.27;49.16
72677;BME280;60755;51.374;10.662;2023-05-03T12:28:48;98250.66;;;13.28;48.80
72677;BME280;60755;51.374;10.662;2023-05-03T12:31:15;98246.78;;;13.42;49.70
72677;BME280;60755;51.374;10.662;2023-05-03T12:33:43;98248.16;;;13.44;47.09
72677;BME280;60755;51.374;10.662;2023-05-03T12:36:10;98236.31;;;13.35;47.62
72677;BME280;60755;51.374;10.662;2023-05-03T12:38:38;98242.69;;;13.16;49.10
72677;BME280;60755;51.374;10.662;2023-05-03T12:41:05;98242.97;;;12.96;48.05
72677;BME280;60755;51.374;10.662;2023-05-03T12:43:32;98235.88;;;12.48;48.50
72677;BME280;60755;51.374;10.662;2023-05-03T12:46:01;98238.84;;;13.00;48.32
72677;BME280;60755;51.374;10.662;2023-05-03T12:48:28;98237.69;;;12.96;48.38
72677;BME280;60755;51.374;10.662;2023-05-03T12:50:56;98235.28;;;12.95;49.19
72677;BME280;60755;51.374;10.662;2023-05-03T12:53:24;98227.72;;;13.52;53.50
72677;BME280;60755;51.374;10.662;2023-05-03T12:55:52;98233.38;;;13.67;48.00
72677;BME280;60755;51.374;10.662;2023-05-03T12:58:20;98231.97;;;13.76;43.95
72677;BME280;60755;51.374;10.662;2023-05-03T13:00:47;98234.38;;;13.54;43.49
72677;BME280;60755;51.374;10.662;2023-05-03T13:03:17;98230.00;;;13.36;45.04